sensor_id;sensor_type;location;lat;lon;timestamp;pressure;altitude;pressure_sealevel;temperature;humidity
20003;BME280;10162;41.600;23.806;2023-09-07T00:00:03;95538.66;;;18.56;100.00
20003;BME280;10162;41.600;23.806;2023-09-07T00:02:37;95544.59;;;18.52;100.00
20003;BME280;10162;41.600;23.806;2023-09-07T00:05:05;95529.81;;;18.39;100.00
20003;BME280;10162;41.600;23.806;2023-09-07T00:07:57;95535.03;;;18.63;100.00
20003;BME280;10162;41.600;23.806;2023-09-07T00:10:23;95526.25;;;18.34;100.00
20003;BME280;10162;41.600;23.806;2023-09-07T00:12:51;95519.69;;;17.90;100.00
20003;BME280;10162;41.600;23.806;2023-09-07T00:15:17;95517.00;;;18.36;100.00
20003;BME280;10162;41.600;23.806;2023-09-07T00:17:46;95524.44;;;18.63;100.00
20003;BME280;10162;41.600;23.806;2023-09-07T00:20:14;95530.22;;;18.60;100.00
20003;BME280;10162;41.600;23.806;2023-09-07T00:22:40;95524.53;;;18.28;100.00
20003;BME280;10162;41.600;23.806;2023-09-07T00:25:06;95533.38;;;18.33;100.00
20003;BME280;10162;41.600;23.806;2023-09-07T00:27:39;95536.03;;;18.22;100.00
20003;BME280;10162;41.600;23.806;2023-09-07T00:30:06;95528.09;;;18.22;100.00
20003;BME280;10162;41.600;23.806;2023-09-07T00:32:38;95528.06;;;18.56;100.00
20003;BME280;10162;41.600;23.806;2023-09-07T00:35:05;95512.19;;;18.33;100.00
20003;BME280;10162;41.600;23.806;2023-09-07T00:37:53;95521.78;;;17.76;100.00
20003;BME280;10162;41.600;23.806;2023-09-07T00:40:20;95518.69;;;17.91;100.00
20003;BME280;10162;41.600;23.806;2023-09-07T00:42:46;95515.56;;;18.05;100.00
20003;BME280;10162;41.600;23.806;2023-09-07T00:45:12;95520.00;;;18.40;100.00
20003;BME280;10162;41.600;23.806;2023-09-07T00:47:42;95516.91;;;18.31;100.00
20003;BME280;10162;41.600;23.806;2023-09-07T00:50:08;95515.72;;;18.50;100.00
20003;BME280;10162;41.600;23.806;2023-09-07T00:52:35;95521.94;;;18.68;100.00
20003;BME280;10162;41.600;23.806;2023-09-07T00:55:06;95516.44;;;18.86;100.00
20003;BME280;10162;41.600;23.806;2023-09-07T00:57:32;95523.19;;;18.53;100.00
20003;BME280;10162;41.600;23.806;2023-09-07T01:00:00;95511.28;;;18.39;100.00
20003;BME280;10162;41.600;23.806;2023-09-07T01:02:26;95505.56;;;17.96;100.00
20003;BME280;10162;41.600;23.806;2023-09-07T01:04:52;95514.88;;;18.22;100.00
20003;BME280;10162;41.600;23.806;2023-09-07T01:07:26;95502.19;;;18.12;100.00
20003;BME280;10162;41.600;23.806;2023-09-07T01:09:57;95515.81;;;18.04;100.00
20003;BME280;10162;41.600;23.806;2023-09-07T01:12:26;95505.00;;;17.94;100.00
20003;BME280;10162;41.600;23.806;2023-09-07T01:14:52;95512.69;;;17.95;100.00
20003;BME280;10162;41.600;23.806;2023-09-07T01:17:26;95505.09;;;18.10;100.00
20003;BME280;10162;41.600;23.806;2023-09-07T01:19:54;95502.81;;;17.91;100.00
20003;BME280;10162;41.600;23.806;2023-09-07T01:22:23;95504.53;;;17.97;100.00
20003;BME280;10162;41.600;23.806;2023-09-07T01:24:50;95505.00;;;17.82;100.00
20003;BME280;10162;41.600;23.806;2023-09-07T01:27:28;95502.09;;;18.07;100.00
20003;BME280;10162;41.600;23.806;2023-09-07T01:29:54;95498.06;;;18.16;100.00
20003;BME280;10162;41.600;23.806;2023-09-07T01:32:21;95504.25;;;18.33;100.00
20003;BME280;10162;41.600;23.806;2023-09-07T01:34:46;95496.78;;;18.30;100.00
20003;BME280;10162;41.600;23.806;2023-09-07T01:37:19;95511.38;;;18.56;100.00
20003;BME280;10162;41.600;23.806;2023-09-07T01:39:49;95499.78;;;18.34;100.00
20003;BME280;10162;41.600;23.806;2023-09-07T01:42:15;95491.19;;;17.92;100.00
20003;BME280;10162;41.600;23.806;2023-09-07T01:44:41;95509.59;;;17.98;100.00
20003;BME280;10162;41.600;23.806;2023-09-07T01:47:09;95509.47;;;18.05;100.00
20003;BME280;10162;41.600;23.806;2023-09-07T01:49:35;95510.25;;;18.17;100.00
20003;BME280;10162;41.600;23.806;2023-09-07T01:52:01;95497.63;;;17.84;100.00
20003;BME280;10162;41.600;23.806;2023-09-07T01:54:27;95501.41;;;18.00;100.00
20003;BME280;10162;41.600;23.806;2023-09-07T01:56:58;95499.69;;;18.05;100.00
20003;BME280;10162;41.600;23.806;2023-09-07T01:59:25;95505.22;;;18.04;100.00
20003;BME280;10162;41.600;23.806;2023-09-07T02:01:50;95510.94;;;18.12;100.00
20003;BME280;10162;41.600;23.806;2023-09-07T02:04:16;95490.97;;;17.93;100.00
20003;BME280;10162;41.600;23.806;2023-09-07T02:06:42;95507.66;;;17.94;100.00
20003;BME280;10162;41.600;23.806;2023-09-07T02:09:08;95503.94;;;17.95;100.00
20003;BME280;10162;41.600;23.806;2023-09-07T02:11:35;95504.41;;;18.03;100.00
20003;BME280;10162;41.600;23.806;2023-09-07T02:14:02;95494.44;;;17.70;100.00
20003;BME280;10162;41.600;23.806;2023-09-07T02:16:28;95498.28;;;18.26;100.00
20003;BME280;10162;41.600;23.806;2023-09-07T02:19:05;95500.56;;;18.34;100.00
20003;BME280;10162;41.600;23.806;2023-09-07T02:21:33;95497.00;;;18.29;100.00
20003;BME280;10162;41.600;23.806;2023-09-07T02:23:59;95497.28;;;17.81;100.00
20003;BME280;10162;41.600;23.806;2023-09-07T02:26:26;95500.97;;;18.03;100.00
20003;BME280;10162;41.600;23.806;2023-09-07T02:29:19;95512.88;;;18.29;100.00
20003;BME280;10162;41.600;23.806;2023-09-07T02:31:46;95503.50;;;18.09;100.00
20003;BME280;10162;41.600;23.806;2023-09-07T02:34:12;95502.19;;;18.12;100.00
20003;BME280;10162;41.600;23.806;2023-09-07T02:36:37;95485.66;;;18.16;100.00
20003;BME280;10162;41.600;23.806;2023-09-07T02:42:11;95498.97;;;18.33;100.00
20003;BME280;10162;41.600;23.806;2023-09-07T02:44:37;95490.38;;;18.03;100.00
20003;BME280;10162;41.600;23.806;2023-09-07T02:47:09;95494.75;;;17.97;100.00
20003;BME280;10162;41.600;23.806;2023-09-07T02:49:36;95490.13;;;18.28;100.00
20003;BME280;10162;41.600;23.806;2023-09-07T02:52:01;95490.97;;;18.05;100.00
20003;BME280;10162;41.600;23.806;2023-09-07T02:54:29;95489.06;;;18.29;100.00
20003;BME280;10162;41.600;23.806;2023-09-07T02:57:11;95489.56;;;18.02;100.00
20003;BME280;10162;41.600;23.806;2023-09-07T02:59:38;95494.44;;;17.70;100.00
20003;BME280;10162;41.600;23.806;2023-09-07T03:02:04;95486.50;;;17.82;100.00
20003;BME280;10162;41.600;23.806;2023-09-07T03:04:30;95491.06;;;18.10;100.00
20003;BME280;10162;41.600;23.806;2023-09-07T03:09:56;95495.41;;;17.46;100.00
20003;BME280;10162;41.600;23.806;2023-09-07T03:12:22;95489.81;;;17.66;100.00
20003;BME280;10162;41.600;23.806;2023-09-07T03:14:48;95504.56;;;17.32;100.00
20003;BME280;10162;41.600;23.806;2023-09-07T03:17:17;95496.47;;;17.68;100.00
20003;BME280;10162;41.600;23.806;2023-09-07T03:19:44;95517.28;;;18.00;100.00
20003;BME280;10162;41.600;23.806;2023-09-07T03:22:10;95517.88;;;17.90;100.00
20003;BME280;10162;41.600;23.806;2023-09-07T03:24:35;95513.06;;;17.34;100.00
20003;BME280;10162;41.600;23.806;2023-09-07T03:29:58;95511.44;;;17.21;100.00
20003;BME280;10162;41.600;23.806;2023-09-07T03:32:24;95515.06;;;17.09;100.00
20003;BME280;10162;41.600;23.806;2023-09-07T03:34:54;95503.91;;;17.37;100.00
20003;BME280;10162;41.600;23.806;2023-09-07T03:40:26;95502.34;;;17.94;100.00
20003;BME280;10162;41.600;23.806;2023-09-07T03:42:51;95502.75;;;18.26;100.00
20003;BME280;10162;41.600;23.806;2023-09-07T03:45:17;95494.28;;;18.52;100.00
20003;BME280;10162;41.600;23.806;2023-09-07T03:50:52;95517.25;;;18.86;100.00
20003;BME280;10162;41.600;23.806;2023-09-07T03:53:18;95517.00;;;18.88;100.00
20003;BME280;10162;41.600;23.806;2023-09-07T03:55:45;95520.09;;;18.96;99.58
20003;BME280;10162;41.600;23.806;2023-09-07T03:58:26;95524.69;;;19.01;98.32
20003;BME280;10162;41.600;23.806;2023-09-07T04:00:53;95524.09;;;18.99;97.75
20003;BME280;10162;41.600;23.806;2023-09-07T04:03:18;95521.09;;;19.07;96.04
20003;BME280;10162;41.600;23.806;2023-09-07T04:05:44;95528.47;;;19.05;95.72
20003;BME280;10162;41.600;23.806;2023-09-07T04:08:19;95525.31;;;19.08;95.09
20003;BME280;10162;41.600;23.806;2023-09-07T04:10:45;95543.28;;;19.18;94.89
20003;BME280;10162;41.600;23.806;2023-09-07T04:13:10;95525.75;;;19.17;94.62
20003;BME280;10162;41.600;23.806;2023-09-07T04:15:45;95532.66;;;19.18;95.14
20003;BME280;10162;41.600;23.806;2023-09-07T04:18:17;95534.28;;;19.19;94.92
20003;BME280;10162;41.600;23.806;2023-09-07T04:20:43;95541.16;;;19.20;94.78
20003;BME280;10162;41.600;23.806;2023-09-07T04:23:10;95530.31;;;19.05;95.68
20003;BME280;10162;41.600;23.806;2023-09-07T04:25:37;95527.19;;;19.08;95.17
20003;BME280;10162;41.600;23.806;2023-09-07T04:28:40;95540.13;;;19.21;94.21
20003;BME280;10162;41.600;23.806;2023-09-07T04:31:08;95541.44;;;19.18;94.04
20003;BME280;10162;41.600;23.806;2023-09-07T04:33:34;95542.88;;;19.26;93.27
20003;BME280;10162;41.600;23.806;2023-09-07T04:36:11;95537.81;;;19.24;92.82
20003;BME280;10162;41.600;23.806;2023-09-07T04:38:47;95541.44;;;19.18;92.80
20003;BME280;10162;41.600;23.806;2023-09-07T04:41:15;95548.66;;;19.23;91.95
20003;BME280;10162;41.600;23.806;2023-09-07T04:43:42;95553.88;;;19.18;91.87
20003;BME280;10162;41.600;23.806;2023-09-07T04:46:12;95544.06;;;19.18;90.22
20003;BME280;10162;41.600;23.806;2023-09-07T04:48:41;95548.75;;;19.28;89.37
20003;BME280;10162;41.600;23.806;2023-09-07T04:51:08;95552.28;;;19.33;88.38
20003;BME280;10162;41.600;23.806;2023-09-07T04:53:38;95558.81;;;19.42;87.15
20003;BME280;10162;41.600;23.806;2023-09-07T04:56:06;95549.91;;;19.49;86.10
20003;BME280;10162;41.600;23.806;2023-09-07T04:58:52;95558.63;;;19.61;84.87
20003;BME280;10162;41.600;23.806;2023-09-07T05:01:18;95556.69;;;19.73;84.65
20003;BME280;10162;41.600;23.806;2023-09-07T05:03:43;95564.06;;;19.54;84.12
20003;BME280;10162;41.600;23.806;2023-09-07T05:06:11;95553.09;;;19.62;83.80
20003;BME280;10162;41.600;23.806;2023-09-07T05:12:11;95562.25;;;19.43;83.48
20003;BME280;10162;41.600;23.806;2023-09-07T05:14:40;95565.06;;;19.65;82.69
20003;BME280;10162;41.600;23.806;2023-09-07T05:17:06;95565.59;;;19.50;81.57
20003;BME280;10162;41.600;23.806;2023-09-07T05:19:32;95561.44;;;19.71;81.95
20003;BME280;10162;41.600;23.806;2023-09-07T05:21:58;95559.84;;;19.70;79.95
20003;BME280;10162;41.600;23.806;2023-09-07T05:24:25;95567.38;;;19.78;79.06
20003;BME280;10162;41.600;23.806;2023-09-07T05:30:27;95567.28;;;20.06;77.14
20003;BME280;10162;41.600;23.806;2023-09-07T05:32:53;95562.78;;;20.07;76.33
20003;BME280;10162;41.600;23.806;2023-09-07T05:35:19;95563.28;;;20.04;74.96
20003;BME280;10162;41.600;23.806;2023-09-07T05:37:49;95563.19;;;19.82;75.78
20003;BME280;10162;41.600;23.806;2023-09-07T05:40:15;95567.81;;;19.87;75.53
20003;BME280;10162;41.600;23.806;2023-09-07T05:42:40;95560.72;;;19.75;74.33
20003;BME280;10162;41.600;23.806;2023-09-07T05:45:07;95565.63;;;19.84;74.10
20003;BME280;10162;41.600;23.806;2023-09-07T05:50:55;95575.31;;;20.28;71.57
20003;BME280;10162;41.600;23.806;2023-09-07T05:53:21;95581.06;;;20.20;70.78
20003;BME280;10162;41.600;23.806;2023-09-07T05:55:47;95591.44;;;20.21;69.68
20003;BME280;10162;41.600;23.806;2023-09-07T05:58:31;95580.16;;;20.14;69.34
20003;BME280;10162;41.600;23.806;2023-09-07T06:00:57;95582.16;;;20.41;66.99
20003;BME280;10162;41.600;23.806;2023-09-07T06:03:23;95583.78;;;20.42;67.21
20003;BME280;10162;41.600;23.806;2023-09-07T06:05:50;95586.72;;;20.45;67.73
20003;BME280;10162;41.600;23.806;2023-09-07T06:11:22;95585.41;;;20.65;65.28
20003;BME280;10162;41.600;23.806;2023-09-07T06:13:48;95578.28;;;20.48;64.53
20003;BME280;10162;41.600;23.806;2023-09-07T06:16:16;95582.34;;;20.73;64.52
20003;BME280;10162;41.600;23.806;2023-09-07T06:18:42;95586.47;;;20.85;63.61
20003;BME280;10162;41.600;23.806;2023-09-07T06:21:08;95582.47;;;20.83;62.75
20003;BME280;10162;41.600;23.806;2023-09-07T06:23:39;95587.09;;;20.71;63.11
20003;BME280;10162;41.600;23.806;2023-09-07T06:26:05;95595.34;;;20.74;62.07
20003;BME280;10162;41.600;23.806;2023-09-07T06:28:48;95588.56;;;20.83;62.10
20003;BME280;10162;41.600;23.806;2023-09-07T06:31:14;95590.06;;;20.96;61.19
20003;BME280;10162;41.600;23.806;2023-09-07T06:33:40;95587.00;;;21.31;60.43
20003;BME280;10162;41.600;23.806;2023-09-07T06:36:07;95596.34;;;21.12;59.92
20003;BME280;10162;41.600;23.806;2023-09-07T06:38:41;95591.97;;;21.22;59.73
20003;BME280;10162;41.600;23.806;2023-09-07T06:41:08;95601.06;;;21.04;60.54
20003;BME280;10162;41.600;23.806;2023-09-07T06:43:35;95597.91;;;21.56;60.59
20003;BME280;10162;41.600;23.806;2023-09-07T06:46:07;95591.66;;;21.40;59.19
20003;BME280;10162;41.600;23.806;2023-09-07T06:48:34;95594.44;;;21.56;60.33
20003;BME280;10162;41.600;23.806;2023-09-07T06:51:04;95600.69;;;21.71;58.29
20003;BME280;10162;41.600;23.806;2023-09-07T06:53:32;95598.72;;;21.89;57.37
20003;BME280;10162;41.600;23.806;2023-09-07T06:55:59;95613.06;;;22.09;56.99
20003;BME280;10162;41.600;23.806;2023-09-07T06:58:31;95604.56;;;22.17;55.86
20003;BME280;10162;41.600;23.806;2023-09-07T07:01:00;95606.50;;;22.69;55.43
20003;BME280;10162;41.600;23.806;2023-09-07T07:03:28;95602.06;;;22.80;55.03
20003;BME280;10162;41.600;23.806;2023-09-07T07:05:54;95604.53;;;22.49;54.44
20003;BME280;10162;41.600;23.806;2023-09-07T07:08:20;95595.84;;;22.69;53.87
20003;BME280;10162;41.600;23.806;2023-09-07T07:10:46;95603.56;;;22.65;54.28
20003;BME280;10162;41.600;23.806;2023-09-07T07:13:12;95598.69;;;22.99;52.75
20003;BME280;10162;41.600;23.806;2023-09-07T07:15:39;95605.03;;;22.88;52.49
20003;BME280;10162;41.600;23.806;2023-09-07T07:18:05;95608.91;;;23.28;51.91
20003;BME280;10162;41.600;23.806;2023-09-07T07:20:41;95612.31;;;23.13;50.91
20003;BME280;10162;41.600;23.806;2023-09-07T07:23:07;95616.00;;;23.69;51.34
20003;BME280;10162;41.600;23.806;2023-09-07T07:25:34;95611.47;;;24.00;50.46
20003;BME280;10162;41.600;23.806;2023-09-07T07:28:14;95599.72;;;24.01;50.25
20003;BME280;10162;41.600;23.806;2023-09-07T07:30:41;95608.25;;;23.63;50.67
20003;BME280;10162;41.600;23.806;2023-09-07T07:33:07;95613.34;;;23.74;51.00
20003;BME280;10162;41.600;23.806;2023-09-07T07:35:34;95613.34;;;23.89;51.99
20003;BME280;10162;41.600;23.806;2023-09-07T07:38:07;95608.00;;;24.00;51.19
20003;BME280;10162;41.600;23.806;2023-09-07T07:40:35;95615.22;;;24.14;50.60
20003;BME280;10162;41.600;23.806;2023-09-07T07:43:01;95619.22;;;24.02;50.13
20003;BME280;10162;41.600;23.806;2023-09-07T07:45:29;95629.91;;;24.17;49.24
20003;BME280;10162;41.600;23.806;2023-09-07T07:47:55;95620.28;;;23.96;49.82
20003;BME280;10162;41.600;23.806;2023-09-07T07:50:22;95632.84;;;24.05;51.44
20003;BME280;10162;41.600;23.806;2023-09-07T07:52:48;95622.41;;;23.99;51.40
20003;BME280;10162;41.600;23.806;2023-09-07T07:55:15;95629.88;;;23.86;50.87
20003;BME280;10162;41.600;23.806;2023-09-07T07:57:41;95637.06;;;23.66;50.68
20003;BME280;10162;41.600;23.806;2023-09-07T08:00:10;95633.84;;;23.64;51.65
20003;BME280;10162;41.600;23.806;2023-09-07T08:02:48;95624.69;;;23.34;54.21
20003;BME280;10162;41.600;23.806;2023-09-07T08:05:15;95637.63;;;23.83;52.21
20003;BME280;10162;41.600;23.806;2023-09-07T08:07:42;95644.59;;;23.94;52.94
20003;BME280;10162;41.600;23.806;2023-09-07T08:10:08;95637.25;;;23.44;51.51
20003;BME280;10162;41.600;23.806;2023-09-07T08:12:33;95638.09;;;23.55;53.53
20003;BME280;10162;41.600;23.806;2023-09-07T08:15:00;95647.19;;;23.64;53.29
20003;BME280;10162;41.600;23.806;2023-09-07T08:17:26;95633.75;;;23.28;52.12
20003;BME280;10162;41.600;23.806;2023-09-07T08:19:51;95636.41;;;23.33;53.46
20003;BME280;10162;41.600;23.806;2023-09-07T08:22:23;95639.59;;;23.25;54.32
20003;BME280;10162;41.600;23.806;2023-09-07T08:24:49;95634.25;;;23.25;53.07
20003;BME280;10162;41.600;23.806;2023-09-07T08:27:16;95643.88;;;23.31;54.15
20003;BME280;10162;41.600;23.806;2023-09-07T08:29:49;95637.47;;;23.32;54.08
20003;BME280;10162;41.600;23.806;2023-09-07T08:32:17;95635.09;;;23.41;54.49
20003;BME280;10162;41.600;23.806;2023-09-07T08:34:43;95635.19;;;23.66;54.33
20003;BME280;10162;41.600;23.806;2023-09-07T08:37:21;95642.41;;;23.71;55.16
20003;BME280;10162;41.600;23.806;2023-09-07T08:39:46;95643.78;;;23.99;56.80
20003;BME280;10162;41.600;23.806;2023-09-07T08:42:12;95632.84;;;24.10;53.69
20003;BME280;10162;41.600;23.806;2023-09-07T08:44:42;95643.78;;;24.04;52.29
20003;BME280;10162;41.600;23.806;2023-09-07T08:47:08;95645.16;;;24.37;52.12
20003;BME280;10162;41.600;23.806;2023-09-07T08:49:35;95642.47;;;24.21;52.22
20003;BME280;10162;41.600;23.806;2023-09-07T08:52:01;95632.53;;;24.73;50.57
20003;BME280;10162;41.600;23.806;2023-09-07T08:54:28;95626.69;;;24.50;51.19
20003;BME280;10162;41.600;23.806;2023-09-07T08:56:57;95629.56;;;24.84;49.82
20003;BME280;10162;41.600;23.806;2023-09-07T08:59:22;95626.19;;;25.38;48.64
20003;BME280;10162;41.600;23.806;2023-09-07T09:01:48;95618.06;;;24.99;48.81
20003;BME280;10162;41.600;23.806;2023-09-07T09:04:14;95614.88;;;25.56;47.76
20003;BME280;10162;41.600;23.806;2023-09-07T09:06:41;95616.56;;;25.32;48.50
20003;BME280;10162;41.600;23.806;2023-09-07T09:09:06;95612.16;;;25.02;49.32
20003;BME280;10162;41.600;23.806;2023-09-07T09:11:32;95614.88;;;25.51;49.16
20003;BME280;10162;41.600;23.806;2023-09-07T09:13:59;95603.38;;;25.50;48.29
20003;BME280;10162;41.600;23.806;2023-09-07T09:16:25;95591.03;;;25.05;48.82
20003;BME280;10162;41.600;23.806;2023-09-07T09:18:56;95605.78;;;25.47;48.07
20003;BME280;10162;41.600;23.806;2023-09-07T09:21:24;95589.97;;;25.50;48.29
20003;BME280;10162;41.600;23.806;2023-09-07T09:23:52;95593.31;;;25.76;48.36
20003;BME280;10162;41.600;23.806;2023-09-07T09:26:20;95585.53;;;25.75;48.96
20003;BME280;10162;41.600;23.806;2023-09-07T09:28:47;95577.44;;;26.24;48.13
20003;BME280;10162;41.600;23.806;2023-09-07T09:31:13;95575.97;;;26.03;47.63
20003;BME280;10162;41.600;23.806;2023-09-07T09:33:47;95585.66;;;25.99;47.29
20003;BME280;10162;41.600;23.806;2023-09-07T09:36:12;95584.25;;;26.40;46.57
20003;BME280;10162;41.600;23.806;2023-09-07T09:38:39;95585.72;;;25.88;48.51
20003;BME280;10162;41.600;23.806;2023-09-07T09:41:06;95584.47;;;25.76;48.30
20003;BME280;10162;41.600;23.806;2023-09-07T09:43:33;95583.41;;;26.11;49.12
20003;BME280;10162;41.600;23.806;2023-09-07T09:45:59;95596.28;;;26.09;47.01
20003;BME280;10162;41.600;23.806;2023-09-07T09:48:27;95582.88;;;25.75;47.71
20003;BME280;10162;41.600;23.806;2023-09-07T09:50:53;95590.22;;;25.54;48.33
20003;BME280;10162;41.600;23.806;2023-09-07T09:53:20;95578.25;;;25.41;48.33
20003;BME280;10162;41.600;23.806;2023-09-07T09:55:47;95583.22;;;25.14;48.46
20003;BME280;10162;41.600;23.806;2023-09-07T09:58:13;95563.44;;;25.10;49.32
20003;BME280;10162;41.600;23.806;2023-09-07T10:00:43;95573.59;;;25.08;49.85
20003;BME280;10162;41.600;23.806;2023-09-07T10:03:24;95579.72;;;25.14;50.64
20003;BME280;10162;41.600;23.806;2023-09-07T10:05:52;95569.09;;;25.47;49.55
20003;BME280;10162;41.600;23.806;2023-09-07T10:08:20;95573.13;;;24.86;50.58
20003;BME280;10162;41.600;23.806;2023-09-07T10:10:49;95558.03;;;25.20;50.02
20003;BME280;10162;41.600;23.806;2023-09-07T10:13:29;95570.56;;;25.25;49.56
20003;BME280;10162;41.600;23.806;2023-09-07T10:16:04;95567.50;;;25.57;49.31
20003;BME280;10162;41.600;23.806;2023-09-07T10:18:38;95561.13;;;26.15;48.29
20003;BME280;10162;41.600;23.806;2023-09-07T10:21:04;95551.53;;;26.38;48.38
20003;BME280;10162;41.600;23.806;2023-09-07T10:26:05;95555.91;;;26.58;47.49
20003;BME280;10162;41.600;23.806;2023-09-07T10:28:31;95560.66;;;26.08;48.05
20003;BME280;10162;41.600;23.806;2023-09-07T10:30:59;95556.69;;;25.67;49.08
20003;BME280;10162;41.600;23.806;2023-09-07T10:33:25;95556.50;;;25.92;48.47
20003;BME280;10162;41.600;23.806;2023-09-07T10:35:52;95556.66;;;26.06;49.32
20003;BME280;10162;41.600;23.806;2023-09-07T10:38:18;95553.16;;;25.32;50.51
20003;BME280;10162;41.600;23.806;2023-09-07T10:40:44;95555.88;;;25.22;50.65
20003;BME280;10162;41.600;23.806;2023-09-07T10:43:13;95551.16;;;25.04;50.82
20003;BME280;10162;41.600;23.806;2023-09-07T10:45:44;95551.69;;;25.06;52.08
20003;BME280;10162;41.600;23.806;2023-09-07T10:48:10;95550.41;;;24.93;54.17
20003;BME280;10162;41.600;23.806;2023-09-07T10:50:46;95556.19;;;25.16;52.23
20003;BME280;10162;41.600;23.806;2023-09-07T10:53:13;95556.78;;;25.02;54.15
20003;BME280;10162;41.600;23.806;2023-09-07T10:55:40;95565.38;;;24.84;53.68
20003;BME280;10162;41.600;23.806;2023-09-07T10:58:07;95560.63;;;24.71;54.94
20003;BME280;10162;41.600;23.806;2023-09-07T11:00:36;95569.97;;;24.89;53.75
20003;BME280;10162;41.600;23.806;2023-09-07T11:03:09;95568.34;;;24.78;54.90
20003;BME280;10162;41.600;23.806;2023-09-07T11:05:42;95566.97;;;24.85;54.51
20003;BME280;10162;41.600;23.806;2023-09-07T11:08:08;95573.41;;;24.94;54.76
20003;BME280;10162;41.600;23.806;2023-09-07T11:10:36;95560.41;;;25.27;52.63
20003;BME280;10162;41.600;23.806;2023-09-07T11:13:03;95564.19;;;25.21;53.97
20003;BME280;10162;41.600;23.806;2023-09-07T11:15:31;95562.97;;;24.88;54.37
20003;BME280;10162;41.600;23.806;2023-09-07T11:17:57;95554.75;;;25.33;54.29
20003;BME280;10162;41.600;23.806;2023-09-07T11:20:24;95550.31;;;25.58;52.64
20003;BME280;10162;41.600;23.806;2023-09-07T11:22:50;95552.47;;;25.06;54.17
20003;BME280;10162;41.600;23.806;2023-09-07T11:25:17;95546.84;;;25.08;52.62
20003;BME280;10162;41.600;23.806;2023-09-07T11:27:42;95537.88;;;25.33;52.17
20003;BME280;10162;41.600;23.806;2023-09-07T11:30:10;95542.16;;;25.34;53.12
20003;BME280;10162;41.600;23.806;2023-09-07T11:32:37;95539.16;;;24.91;53.56
20003;BME280;10162;41.600;23.806;2023-09-07T11:35:04;95534.66;;;24.77;53.78
20003;BME280;10162;41.600;23.806;2023-09-07T11:37:34;95541.03;;;24.86;54.46
20003;BME280;10162;41.600;23.806;2023-09-07T11:40:01;95532.81;;;24.67;55.03
20003;BME280;10162;41.600;23.806;2023-09-07T11:42:29;95528.06;;;24.54;55.77
20003;BME280;10162;41.600;23.806;2023-09-07T11:44:55;95532.00;;;24.77;55.44
20003;BME280;10162;41.600;23.806;2023-09-07T11:47:21;95523.25;;;24.51;56.75
20003;BME280;10162;41.600;23.806;2023-09-07T11:49:47;95517.31;;;24.64;54.31
20003;BME280;10162;41.600;23.806;2023-09-07T11:52:14;95516.25;;;24.70;55.85
20003;BME280;10162;41.600;23.806;2023-09-07T11:54:40;95521.22;;;24.97;54.94
20003;BME280;10162;41.600;23.806;2023-09-07T11:57:05;95508.59;;;25.07;53.88
20003;BME280;10162;41.600;23.806;2023-09-07T11:59:31;95504.97;;;25.32;53.78
20003;BME280;10162;41.600;23.806;2023-09-07T12:01:58;95510.66;;;25.21;53.94
20003;BME280;10162;41.600;23.806;2023-09-07T12:04:25;95513.16;;;25.02;53.93
20003;BME280;10162;41.600;23.806;2023-09-07T12:06:51;95507.28;;;25.05;54.62
20003;BME280;10162;41.600;23.806;2023-09-07T12:09:21;95512.59;;;25.10;54.18
20003;BME280;10162;41.600;23.806;2023-09-07T12:11:46;95520.47;;;24.81;55.12
20003;BME280;10162;41.600;23.806;2023-09-07T12:14:12;95526.41;;;24.63;56.38
20003;BME280;10162;41.600;23.806;2023-09-07T12:16:38;95516.66;;;24.03;56.86
20003;BME280;10162;41.600;23.806;2023-09-07T12:19:04;95522.81;;;23.88;57.84
20003;BME280;10162;41.600;23.806;2023-09-07T12:21:37;95513.44;;;24.01;58.15
20003;BME280;10162;41.600;23.806;2023-09-07T12:24:03;95521.47;;;23.96;57.41
20003;BME280;10162;41.600;23.806;2023-09-07T12:26:29;95511.88;;;23.84;57.61
20003;BME280;10162;41.600;23.806;2023-09-07T12:28:56;95516.13;;;23.96;59.14
20003;BME280;10162;41.600;23.806;2023-09-07T12:31:22;95523.88;;;24.02;59.88
20003;BME280;10162;41.600;23.806;2023-09-07T12:33:48;95514.53;;;23.84;59.19
20003;BME280;10162;41.600;23.806;2023-09-07T12:36:13;95517.47;;;23.78;59.44
20003;BME280;10162;41.600;23.806;2023-09-07T12:38:39;95520.16;;;23.63;60.03
20003;BME280;10162;41.600;23.806;2023-09-07T12:41:05;95525.50;;;23.68;59.31
20003;BME280;10162;41.600;23.806;2023-09-07T12:43:31;95518.81;;;23.50;61.77
20003;BME280;10162;41.600;23.806;2023-09-07T12:45:57;95519.81;;;23.39;60.36
20003;BME280;10162;41.600;23.806;2023-09-07T12:48:24;95524.34;;;23.33;61.37
20003;BME280;10162;41.600;23.806;2023-09-07T12:50:50;95522.50;;;23.39;61.39
20003;BME280;10162;41.600;23.806;2023-09-07T12:53:15;95520.63;;;23.29;60.94
20003;BME280;10162;41.600;23.806;2023-09-07T12:55:42;95526.72;;;23.30;60.38
20003;BME280;10162;41.600;23.806;2023-09-07T12:58:08;95527.81;;;23.24;60.68
20003;BME280;10162;41.600;23.806;2023-09-07T13:00:33;95524.06;;;23.25;60.61
20003;BME280;10162;41.600;23.806;2023-09-07T13:03:01;95519.53;;;23.30;60.32
20003;BME280;10162;41.600;23.806;2023-09-07T13:05:27;95524.06;;;23.30;60.38
20003;BME280;10162;41.600;23.806;2023-09-07T13:07:53;95519.03;;;23.28;60.65
20003;BME280;10162;41.600;23.806;2023-09-07T13:10:19;95515.81;;;23.31;60.69
20003;BME280;10162;41.600;23.806;2023-09-07T13:12:46;95525.69;;;23.36;63.14
20003;BME280;10162;41.600;23.806;2023-09-07T13:15:12;95522.75;;;23.27;60.47
20003;BME280;10162;41.600;23.806;2023-09-07T13:17:37;95521.94;;;23.37;59.84
20003;BME280;10162;41.600;23.806;2023-09-07T13:20:03;95519.03;;;23.33;61.46
20003;BME280;10162;41.600;23.806;2023-09-07T13:22:30;95523.25;;;23.24;61.85